sensor_id;sensor_type;location;lat;lon;timestamp;temperature;humidity
17385;DHT22;8810;48.680;8.894;2023-04-24T00:00:36;9.90;99.90
17385;DHT22;8810;48.680;8.894;2023-04-24T00:03:06;9.90;99.90
17385;DHT22;8810;48.680;8.894;2023-04-24T00:05:34;9.90;99.90
17385;DHT22;8810;48.680;8.894;2023-04-24T00:08:01;9.90;99.90
17385;DHT22;8810;48.680;8.894;2023-04-24T00:10:28;10.00;99.90
17385;DHT22;8810;48.680;8.894;2023-04-24T00:12:55;10.00;99.90
17385;DHT22;8810;48.680;8.894;2023-04-24T00:15:22;10.10;99.90
17385;DHT22;8810;48.680;8.894;2023-04-24T00:17:49;10.10;99.90
17385;DHT22;8810;48.680;8.894;2023-04-24T00:20:17;10.10;99.90
17385;DHT22;8810;48.680;8.894;2023-04-24T00:22:45;10.10;99.90
17385;DHT22;8810;48.680;8.894;2023-04-24T00:25:12;10.10;99.90
17385;DHT22;8810;48.680;8.894;2023-04-24T00:27:39;10.20;99.90
17385;DHT22;8810;48.680;8.894;2023-04-24T00:30:07;10.20;99.90
17385;DHT22;8810;48.680;8.894;2023-04-24T00:32:34;10.20;99.90
17385;DHT22;8810;48.680;8.894;2023-04-24T00:35:01;10.20;99.90
17385;DHT22;8810;48.680;8.894;2023-04-24T00:37:28;10.20;99.90
17385;DHT22;8810;48.680;8.894;2023-04-24T00:39:56;10.20;99.90
17385;DHT22;8810;48.680;8.894;2023-04-24T00:42:23;10.20;99.90
17385;DHT22;8810;48.680;8.894;2023-04-24T00:44:51;10.20;99.90
17385;DHT22;8810;48.680;8.894;2023-04-24T00:47:19;10.20;99.90
17385;DHT22;8810;48.680;8.894;2023-04-24T00:49:47;10.10;99.90
17385;DHT22;8810;48.680;8.894;2023-04-24T00:52:14;10.10;99.90
17385;DHT22;8810;48.680;8.894;2023-04-24T00:54:43;10.20;99.90
17385;DHT22;8810;48.680;8.894;2023-04-24T00:57:13;10.10;99.90
17385;DHT22;8810;48.680;8.894;2023-04-24T00:59:40;10.10;99.90
17385;DHT22;8810;48.680;8.894;2023-04-24T01:02:07;10.10;99.90
17385;DHT22;8810;48.680;8.894;2023-04-24T01:04:36;10.10;99.90
17385;DHT22;8810;48.680;8.894;2023-04-24T01:07:03;10.10;99.90
17385;DHT22;8810;48.680;8.894;2023-04-24T01:09:35;10.10;99.90
17385;DHT22;8810;48.680;8.894;2023-04-24T01:12:03;10.20;99.90
17385;DHT22;8810;48.680;8.894;2023-04-24T01:14:31;10.20;99.90
17385;DHT22;8810;48.680;8.894;2023-04-24T01:16:58;10.20;99.90
17385;DHT22;8810;48.680;8.894;2023-04-24T01:19:25;10.10;99.90
17385;DHT22;8810;48.680;8.894;2023-04-24T01:21:54;10.10;99.90
17385;DHT22;8810;48.680;8.894;2023-04-24T01:24:26;10.10;99.90
17385;DHT22;8810;48.680;8.894;2023-04-24T01:26:53;10.00;99.90
17385;DHT22;8810;48.680;8.894;2023-04-24T01:29:20;10.00;99.90
17385;DHT22;8810;48.680;8.894;2023-04-24T01:31:47;10.00;99.90
17385;DHT22;8810;48.680;8.894;2023-04-24T01:34:14;10.00;99.90
17385;DHT22;8810;48.680;8.894;2023-04-24T01:36:43;9.90;99.90
17385;DHT22;8810;48.680;8.894;2023-04-24T01:39:12;9.90;99.90
17385;DHT22;8810;48.680;8.894;2023-04-24T01:41:40;9.90;99.90
17385;DHT22;8810;48.680;8.894;2023-04-24T01:44:07;9.90;99.90
17385;DHT22;8810;48.680;8.894;2023-04-24T01:46:34;9.80;99.90
17385;DHT22;8810;48.680;8.894;2023-04-24T01:49:02;9.80;99.90
17385;DHT22;8810;48.680;8.894;2023-04-24T01:51:29;9.80;99.90
17385;DHT22;8810;48.680;8.894;2023-04-24T01:53:55;9.80;99.90
17385;DHT22;8810;48.680;8.894;2023-04-24T01:56:23;9.80;99.90
17385;DHT22;8810;48.680;8.894;2023-04-24T01:58:52;9.70;99.90
17385;DHT22;8810;48.680;8.894;2023-04-24T02:01:20;9.60;99.90
17385;DHT22;8810;48.680;8.894;2023-04-24T02:03:47;9.50;99.90
17385;DHT22;8810;48.680;8.894;2023-04-24T02:06:14;9.50;99.90
17385;DHT22;8810;48.680;8.894;2023-04-24T02:08:41;9.40;99.90
17385;DHT22;8810;48.680;8.894;2023-04-24T02:11:08;9.40;99.90
17385;DHT22;8810;48.680;8.894;2023-04-24T02:13:35;9.40;99.90
17385;DHT22;8810;48.680;8.894;2023-04-24T02:16:04;9.30;99.90
17385;DHT22;8810;48.680;8.894;2023-04-24T02:18:31;9.30;99.90
17385;DHT22;8810;48.680;8.894;2023-04-24T02:20:57;9.30;99.90
17385;DHT22;8810;48.680;8.894;2023-04-24T02:23:24;9.30;99.90
17385;DHT22;8810;48.680;8.894;2023-04-24T02:25:52;9.30;99.90
17385;DHT22;8810;48.680;8.894;2023-04-24T02:28:19;9.40;99.90
17385;DHT22;8810;48.680;8.894;2023-04-24T02:30:46;9.30;99.90
17385;DHT22;8810;48.680;8.894;2023-04-24T02:33:14;9.30;99.90
17385;DHT22;8810;48.680;8.894;2023-04-24T02:35:41;9.30;99.90
17385;DHT22;8810;48.680;8.894;2023-04-24T02:38:08;9.30;99.90
17385;DHT22;8810;48.680;8.894;2023-04-24T02:40:35;9.30;99.90
17385;DHT22;8810;48.680;8.894;2023-04-24T02:43:02;9.30;99.90
17385;DHT22;8810;48.680;8.894;2023-04-24T02:45:29;9.30;99.90
17385;DHT22;8810;48.680;8.894;2023-04-24T02:47:55;9.30;99.90
17385;DHT22;8810;48.680;8.894;2023-04-24T02:50:24;9.30;99.90
17385;DHT22;8810;48.680;8.894;2023-04-24T02:52:50;9.30;99.90
17385;DHT22;8810;48.680;8.894;2023-04-24T02:55:17;9.30;99.90
17385;DHT22;8810;48.680;8.894;2023-04-24T02:57:44;9.20;99.90
17385;DHT22;8810;48.680;8.894;2023-04-24T03:00:12;9.20;99.90
17385;DHT22;8810;48.680;8.894;2023-04-24T03:02:39;9.20;99.90
17385;DHT22;8810;48.680;8.894;2023-04-24T03:05:07;9.20;99.90
17385;DHT22;8810;48.680;8.894;2023-04-24T03:07:35;9.10;99.90
17385;DHT22;8810;48.680;8.894;2023-04-24T03:10:03;9.10;99.90
17385;DHT22;8810;48.680;8.894;2023-04-24T03:12:30;9.00;99.90
17385;DHT22;8810;48.680;8.894;2023-04-24T03:14:57;9.00;99.90
17385;DHT22;8810;48.680;8.894;2023-04-24T03:17:24;9.00;99.90
17385;DHT22;8810;48.680;8.894;2023-04-24T03:19:51;8.90;99.90
17385;DHT22;8810;48.680;8.894;2023-04-24T03:22:18;8.90;99.90
17385;DHT22;8810;48.680;8.894;2023-04-24T03:24:46;8.90;99.90
17385;DHT22;8810;48.680;8.894;2023-04-24T03:27:13;8.90;99.90
17385;DHT22;8810;48.680;8.894;2023-04-24T03:29:40;8.90;99.90
17385;DHT22;8810;48.680;8.894;2023-04-24T03:32:06;8.90;99.90
17385;DHT22;8810;48.680;8.894;2023-04-24T03:34:33;8.90;99.90
17385;DHT22;8810;48.680;8.894;2023-04-24T03:37:00;8.80;99.90
17385;DHT22;8810;48.680;8.894;2023-04-24T03:39:27;8.80;99.90
17385;DHT22;8810;48.680;8.894;2023-04-24T03:41:55;8.80;99.90
17385;DHT22;8810;48.680;8.894;2023-04-24T03:44:22;8.80;99.90
17385;DHT22;8810;48.680;8.894;2023-04-24T03:46:49;8.70;99.90
17385;DHT22;8810;48.680;8.894;2023-04-24T03:49:16;8.70;99.90
17385;DHT22;8810;48.680;8.894;2023-04-24T03:51:43;8.70;99.90
17385;DHT22;8810;48.680;8.894;2023-04-24T03:54:09;8.70;99.90
17385;DHT22;8810;48.680;8.894;2023-04-24T03:56:37;8.70;99.90
17385;DHT22;8810;48.680;8.894;2023-04-24T03:59:05;8.80;99.90
17385;DHT22;8810;48.680;8.894;2023-04-24T04:01:32;8.80;99.90
17385;DHT22;8810;48.680;8.894;2023-04-24T04:04:02;8.80;99.90
17385;DHT22;8810;48.680;8.894;2023-04-24T04:06:29;8.90;99.90
17385;DHT22;8810;48.680;8.894;2023-04-24T04:08:56;8.90;99.90
17385;DHT22;8810;48.680;8.894;2023-04-24T04:11:23;8.90;99.90
17385;DHT22;8810;48.680;8.894;2023-04-24T04:13:50;9.00;99.90
17385;DHT22;8810;48.680;8.894;2023-04-24T04:16:18;9.00;99.90
17385;DHT22;8810;48.680;8.894;2023-04-24T04:18:45;9.00;99.90
17385;DHT22;8810;48.680;8.894;2023-04-24T04:21:12;9.10;99.90
17385;DHT22;8810;48.680;8.894;2023-04-24T04:23:39;9.00;99.90
17385;DHT22;8810;48.680;8.894;2023-04-24T04:26:07;8.90;99.90
17385;DHT22;8810;48.680;8.894;2023-04-24T04:28:34;8.80;99.90
17385;DHT22;8810;48.680;8.894;2023-04-24T04:31:01;8.60;99.90
17385;DHT22;8810;48.680;8.894;2023-04-24T04:33:29;8.40;99.90
17385;DHT22;8810;48.680;8.894;2023-04-24T04:35:56;8.30;99.90
17385;DHT22;8810;48.680;8.894;2023-04-24T04:38:23;8.20;99.90
17385;DHT22;8810;48.680;8.894;2023-04-24T04:40:52;8.00;99.90
17385;DHT22;8810;48.680;8.894;2023-04-24T04:43:19;7.90;99.90
17385;DHT22;8810;48.680;8.894;2023-04-24T04:45:46;7.90;99.90
17385;DHT22;8810;48.680;8.894;2023-04-24T04:48:13;7.70;99.90
17385;DHT22;8810;48.680;8.894;2023-04-24T04:50:44;7.60;99.90
17385;DHT22;8810;48.680;8.894;2023-04-24T04:53:11;7.60;99.90
17385;DHT22;8810;48.680;8.894;2023-04-24T04:55:38;7.50;99.90
17385;DHT22;8810;48.680;8.894;2023-04-24T04:58:05;7.50;99.90
17385;DHT22;8810;48.680;8.894;2023-04-24T05:00:32;7.50;99.90
17385;DHT22;8810;48.680;8.894;2023-04-24T05:03:01;7.50;99.90
17385;DHT22;8810;48.680;8.894;2023-04-24T05:05:28;7.50;99.90
17385;DHT22;8810;48.680;8.894;2023-04-24T05:07:56;7.50;99.90
17385;DHT22;8810;48.680;8.894;2023-04-24T05:10:23;7.50;99.90
17385;DHT22;8810;48.680;8.894;2023-04-24T05:12:50;7.50;99.90
17385;DHT22;8810;48.680;8.894;2023-04-24T05:15:17;7.60;99.90
17385;DHT22;8810;48.680;8.894;2023-04-24T05:17:44;7.60;99.90
17385;DHT22;8810;48.680;8.894;2023-04-24T05:20:11;7.60;99.90
17385;DHT22;8810;48.680;8.894;2023-04-24T05:22:38;7.60;99.90
17385;DHT22;8810;48.680;8.894;2023-04-24T05:25:07;7.60;99.90
17385;DHT22;8810;48.680;8.894;2023-04-24T05:27:34;7.50;99.90
17385;DHT22;8810;48.680;8.894;2023-04-24T05:30:00;7.50;99.90
17385;DHT22;8810;48.680;8.894;2023-04-24T05:32:27;7.50;99.90
17385;DHT22;8810;48.680;8.894;2023-04-24T05:34:54;7.60;99.90
17385;DHT22;8810;48.680;8.894;2023-04-24T05:37:21;7.70;99.90
17385;DHT22;8810;48.680;8.894;2023-04-24T05:39:48;7.70;99.90
17385;DHT22;8810;48.680;8.894;2023-04-24T05:42:16;7.70;99.90
17385;DHT22;8810;48.680;8.894;2023-04-24T05:44:43;7.80;99.90
17385;DHT22;8810;48.680;8.894;2023-04-24T05:47:10;7.80;99.90
17385;DHT22;8810;48.680;8.894;2023-04-24T05:49:37;7.80;99.90
17385;DHT22;8810;48.680;8.894;2023-04-24T05:52:04;7.80;99.90
17385;DHT22;8810;48.680;8.894;2023-04-24T05:54:34;7.80;99.90
17385;DHT22;8810;48.680;8.894;2023-04-24T05:57:01;7.80;99.90
17385;DHT22;8810;48.680;8.894;2023-04-24T05:59:35;7.80;99.90
17385;DHT22;8810;48.680;8.894;2023-04-24T06:02:01;7.80;99.90
17385;DHT22;8810;48.680;8.894;2023-04-24T06:04:28;7.90;99.90
17385;DHT22;8810;48.680;8.894;2023-04-24T06:06:55;8.00;99.90
17385;DHT22;8810;48.680;8.894;2023-04-24T06:09:22;8.10;99.90
17385;DHT22;8810;48.680;8.894;2023-04-24T06:11:49;8.20;99.90
17385;DHT22;8810;48.680;8.894;2023-04-24T06:14:18;8.20;99.90
17385;DHT22;8810;48.680;8.894;2023-04-24T06:16:46;8.30;99.90
17385;DHT22;8810;48.680;8.894;2023-04-24T06:19:13;8.40;99.90
17385;DHT22;8810;48.680;8.894;2023-04-24T06:21:40;8.50;99.90
17385;DHT22;8810;48.680;8.894;2023-04-24T06:24:07;8.60;99.90
17385;DHT22;8810;48.680;8.894;2023-04-24T06:26:34;8.70;99.90
17385;DHT22;8810;48.680;8.894;2023-04-24T06:29:00;8.80;99.90
17385;DHT22;8810;48.680;8.894;2023-04-24T06:31:28;8.90;99.90
17385;DHT22;8810;48.680;8.894;2023-04-24T06:33:56;9.00;99.90
17385;DHT22;8810;48.680;8.894;2023-04-24T06:36:23;9.20;99.90
17385;DHT22;8810;48.680;8.894;2023-04-24T06:38:50;9.30;99.90
17385;DHT22;8810;48.680;8.894;2023-04-24T06:41:17;9.40;99.90
17385;DHT22;8810;48.680;8.894;2023-04-24T06:43:43;9.60;99.90
17385;DHT22;8810;48.680;8.894;2023-04-24T06:46:10;9.60;99.90
17385;DHT22;8810;48.680;8.894;2023-04-24T06:48:38;9.50;99.90
17385;DHT22;8810;48.680;8.894;2023-04-24T06:51:06;9.50;99.90
17385;DHT22;8810;48.680;8.894;2023-04-24T06:53:33;9.50;99.90
17385;DHT22;8810;48.680;8.894;2023-04-24T06:56:00;9.50;99.90
17385;DHT22;8810;48.680;8.894;2023-04-24T06:58:27;9.50;99.90
17385;DHT22;8810;48.680;8.894;2023-04-24T07:00:54;9.50;99.90
17385;DHT22;8810;48.680;8.894;2023-04-24T07:03:21;9.30;99.90
17385;DHT22;8810;48.680;8.894;2023-04-24T07:05:48;9.20;99.90
17385;DHT22;8810;48.680;8.894;2023-04-24T07:08:17;9.00;99.90
17385;DHT22;8810;48.680;8.894;2023-04-24T07:10:44;8.90;99.90
17385;DHT22;8810;48.680;8.894;2023-04-24T07:13:11;8.80;99.90
17385;DHT22;8810;48.680;8.894;2023-04-24T07:15:38;8.80;99.90
17385;DHT22;8810;48.680;8.894;2023-04-24T07:18:06;8.90;99.90
17385;DHT22;8810;48.680;8.894;2023-04-24T07:20:33;9.00;99.90
17385;DHT22;8810;48.680;8.894;2023-04-24T07:23:00;9.20;99.90
17385;DHT22;8810;48.680;8.894;2023-04-24T07:25:28;9.40;99.90
17385;DHT22;8810;48.680;8.894;2023-04-24T07:27:57;9.50;99.90
17385;DHT22;8810;48.680;8.894;2023-04-24T07:30:24;9.70;99.90
17385;DHT22;8810;48.680;8.894;2023-04-24T07:32:51;9.80;99.90
17385;DHT22;8810;48.680;8.894;2023-04-24T07:35:18;9.80;99.90
17385;DHT22;8810;48.680;8.894;2023-04-24T07:37:45;9.70;99.90
17385;DHT22;8810;48.680;8.894;2023-04-24T07:40:12;9.70;99.90
17385;DHT22;8810;48.680;8.894;2023-04-24T07:42:40;9.60;99.90
17385;DHT22;8810;48.680;8.894;2023-04-24T07:45:09;9.60;99.90
17385;DHT22;8810;48.680;8.894;2023-04-24T07:47:36;9.80;99.90
17385;DHT22;8810;48.680;8.894;2023-04-24T07:50:05;9.90;99.90
17385;DHT22;8810;48.680;8.894;2023-04-24T07:52:32;10.00;99.90
17385;DHT22;8810;48.680;8.894;2023-04-24T07:54:59;10.10;99.90
17385;DHT22;8810;48.680;8.894;2023-04-24T07:57:27;10.20;99.90
17385;DHT22;8810;48.680;8.894;2023-04-24T07:59:56;10.30;99.90
17385;DHT22;8810;48.680;8.894;2023-04-24T08:02:22;10.40;99.90
17385;DHT22;8810;48.680;8.894;2023-04-24T08:04:52;10.30;99.90
17385;DHT22;8810;48.680;8.894;2023-04-24T08:07:19;10.40;99.90
17385;DHT22;8810;48.680;8.894;2023-04-24T08:09:47;10.30;99.90
17385;DHT22;8810;48.680;8.894;2023-04-24T08:12:13;10.30;99.90
17385;DHT22;8810;48.680;8.894;2023-04-24T08:14:40;10.30;99.90
17385;DHT22;8810;48.680;8.894;2023-04-24T08:17:09;10.40;99.90
17385;DHT22;8810;48.680;8.894;2023-04-24T08:19:35;10.50;99.90
17385;DHT22;8810;48.680;8.894;2023-04-24T08:22:02;10.40;99.90
17385;DHT22;8810;48.680;8.894;2023-04-24T08:24:29;10.20;99.90
17385;DHT22;8810;48.680;8.894;2023-04-24T08:26:56;10.00;99.90
17385;DHT22;8810;48.680;8.894;2023-04-24T08:29:23;9.90;99.90
17385;DHT22;8810;48.680;8.894;2023-04-24T08:31:50;9.80;99.90
17385;DHT22;8810;48.680;8.894;2023-04-24T08:34:21;9.70;99.90
17385;DHT22;8810;48.680;8.894;2023-04-24T08:36:48;9.80;99.90
17385;DHT22;8810;48.680;8.894;2023-04-24T08:39:15;9.80;99.90
17385;DHT22;8810;48.680;8.894;2023-04-24T08:41:44;9.80;99.90
17385;DHT22;8810;48.680;8.894;2023-04-24T08:44:11;9.90;99.90
17385;DHT22;8810;48.680;8.894;2023-04-24T08:46:40;9.90;99.90
17385;DHT22;8810;48.680;8.894;2023-04-24T08:49:07;10.00;99.90
17385;DHT22;8810;48.680;8.894;2023-04-24T08:51:36;10.20;99.90
17385;DHT22;8810;48.680;8.894;2023-04-24T08:54:04;10.40;99.90
17385;DHT22;8810;48.680;8.894;2023-04-24T08:56:34;10.60;99.90
17385;DHT22;8810;48.680;8.894;2023-04-24T10:16:41;12.10;99.90
17385;DHT22;8810;48.680;8.894;2023-04-24T10:19:09;12.00;99.90
17385;DHT22;8810;48.680;8.894;2023-04-24T10:21:40;11.80;99.90
17385;DHT22;8810;48.680;8.894;2023-04-24T10:24:08;11.70;99.90
17385;DHT22;8810;48.680;8.894;2023-04-24T10:26:35;11.70;99.90
17385;DHT22;8810;48.680;8.894;2023-04-24T10:29:05;12.10;99.90
17385;DHT22;8810;48.680;8.894;2023-04-24T10:31:36;12.30;99.90
17385;DHT22;8810;48.680;8.894;2023-04-24T10:34:05;12.20;99.90
17385;DHT22;8810;48.680;8.894;2023-04-24T10:36:33;12.10;99.90
17385;DHT22;8810;48.680;8.894;2023-04-24T10:39:02;12.10;99.90
17385;DHT22;8810;48.680;8.894;2023-04-24T10:41:31;12.00;99.90
17385;DHT22;8810;48.680;8.894;2023-04-24T10:44:07;11.90;99.90
17385;DHT22;8810;48.680;8.894;2023-04-24T10:46:35;11.70;99.90
17385;DHT22;8810;48.680;8.894;2023-04-24T10:49:05;12.00;99.90
17385;DHT22;8810;48.680;8.894;2023-04-24T10:51:48;11.90;99.90
17385;DHT22;8810;48.680;8.894;2023-04-24T10:54:26;12.00;99.90
17385;DHT22;8810;48.680;8.894;2023-04-24T10:56:56;12.60;99.90
17385;DHT22;8810;48.680;8.894;2023-04-24T10:59:40;12.90;99.90
17385;DHT22;8810;48.680;8.894;2023-04-24T11:02:08;13.00;99.90
17385;DHT22;8810;48.680;8.894;2023-04-24T11:04:36;12.70;99.90
17385;DHT22;8810;48.680;8.894;2023-04-24T11:07:03;12.60;99.90
17385;DHT22;8810;48.680;8.894;2023-04-24T11:09:31;12.70;99.90
17385;DHT22;8810;48.680;8.894;2023-04-24T11:12:05;12.80;99.90
17385;DHT22;8810;48.680;8.894;2023-04-24T11:15:00;12.70;99.90
17385;DHT22;8810;48.680;8.894;2023-04-24T11:17:31;12.40;99.90
17385;DHT22;8810;48.680;8.894;2023-04-24T11:20:06;12.10;99.90
17385;DHT22;8810;48.680;8.894;2023-04-24T11:22:34;11.90;99.90
17385;DHT22;8810;48.680;8.894;2023-04-24T11:25:02;11.90;99.90
17385;DHT22;8810;48.680;8.894;2023-04-24T11:27:30;11.60;99.90
17385;DHT22;8810;48.680;8.894;2023-04-24T11:30:02;11.30;99.90
17385;DHT22;8810;48.680;8.894;2023-04-24T11:32:33;11.20;99.90
17385;DHT22;8810;48.680;8.894;2023-04-24T11:35:02;11.20;99.90
17385;DHT22;8810;48.680;8.894;2023-04-24T11:37:34;11.20;99.90
17385;DHT22;8810;48.680;8.894;2023-04-24T11:40:02;11.30;99.90
17385;DHT22;8810;48.680;8.894;2023-04-24T11:42:33;11.50;99.90
17385;DHT22;8810;48.680;8.894;2023-04-24T11:45:00;11.70;99.90
17385;DHT22;8810;48.680;8.894;2023-04-24T11:47:28;11.80;99.90
17385;DHT22;8810;48.680;8.894;2023-04-24T11:49:56;11.60;99.90
17385;DHT22;8810;48.680;8.894;2023-04-24T11:52:23;11.30;99.90
17385;DHT22;8810;48.680;8.894;2023-04-24T11:54:51;11.20;99.90
17385;DHT22;8810;48.680;8.894;2023-04-24T11:57:19;11.00;99.90
17385;DHT22;8810;48.680;8.894;2023-04-24T11:59:47;10.80;99.90
17385;DHT22;8810;48.680;8.894;2023-04-24T12:02:21;10.70;99.90
17385;DHT22;8810;48.680;8.894;2023-04-24T12:04:48;10.70;99.90
17385;DHT22;8810;48.680;8.894;2023-04-24T12:07:15;10.70;99.90
17385;DHT22;8810;48.680;8.894;2023-04-24T12:09:43;10.70;99.90
17385;DHT22;8810;48.680;8.894;2023-04-24T12:12:12;10.80;99.90
17385;DHT22;8810;48.680;8.894;2023-04-24T12:14:58;11.00;99.90
17385;DHT22;8810;48.680;8.894;2023-04-24T12:17:26;11.20;99.90
17385;DHT22;8810;48.680;8.894;2023-04-24T12:19:57;11.20;99.90
17385;DHT22;8810;48.680;8.894;2023-04-24T12:22:24;11.10;99.90
17385;DHT22;8810;48.680;8.894;2023-04-24T12:24:59;11.00;99.90
17385;DHT22;8810;48.680;8.894;2023-04-24T12:27:30;10.90;99.90
17385;DHT22;8810;48.680;8.894;2023-04-24T12:29:58;10.80;99.90
17385;DHT22;8810;48.680;8.894;2023-04-24T12:32:25;11.00;99.90
17385;DHT22;8810;48.680;8.894;2023-04-24T12:34:52;10.70;99.90
17385;DHT22;8810;48.680;8.894;2023-04-24T12:37:19;10.70;99.90
17385;DHT22;8810;48.680;8.894;2023-04-24T12:40:03;10.80;99.90
17385;DHT22;8810;48.680;8.894;2023-04-24T12:42:33;10.90;99.90
17385;DHT22;8810;48.680;8.894;2023-04-24T12:45:02;11.00;99.90
17385;DHT22;8810;48.680;8.894;2023-04-24T12:47:29;11.00;99.90
17385;DHT22;8810;48.680;8.894;2023-04-24T12:49:57;11.00;99.90
17385;DHT22;8810;48.680;8.894;2023-04-24T12:52:24;11.00;99.90
17385;DHT22;8810;48.680;8.894;2023-04-24T12:54:53;10.90;99.90
17385;DHT22;8810;48.680;8.894;2023-04-24T12:57:21;10.90;99.90
17385;DHT22;8810;48.680;8.894;2023-04-24T12:59:49;10.80;99.90
17385;DHT22;8810;48.680;8.894;2023-04-24T13:02:17;10.70;99.90
17385;DHT22;8810;48.680;8.894;2023-04-24T13:04:44;10.80;99.90
17385;DHT22;8810;48.680;8.894;2023-04-24T13:07:12;11.00;99.90
17385;DHT22;8810;48.680;8.894;2023-04-24T13:09:39;11.10;99.90
17385;DHT22;8810;48.680;8.894;2023-04-24T13:12:06;11.00;99.90
17385;DHT22;8810;48.680;8.894;2023-04-24T13:14:33;10.90;99.90
17385;DHT22;8810;48.680;8.894;2023-04-24T13:17:02;10.80;99.90
17385;DHT22;8810;48.680;8.894;2023-04-24T13:19:29;10.70;99.90
17385;DHT22;8810;48.680;8.894;2023-04-24T13:21:57;10.70;99.90
17385;DHT22;8810;48.680;8.894;2023-04-24T13:24:24;10.60;99.90
17385;DHT22;8810;48.680;8.894;2023-04-24T13:26:51;10.60;99.90
17385;DHT22;8810;48.680;8.894;2023-04-24T13:29:18;10.60;99.90
17385;DHT22;8810;48.680;8.894;2023-04-24T13:31:46;10.50;99.90
17385;DHT22;8810;48.680;8.894;2023-04-24T13:34:14;10.40;99.90
17385;DHT22;8810;48.680;8.894;2023-04-24T13:36:41;10.40;99.90
17385;DHT22;8810;48.680;8.894;2023-04-24T13:39:08;10.60;99.90
17385;DHT22;8810;48.680;8.894;2023-04-24T13:41:36;10.70;99.90
17385;DHT22;8810;48.680;8.894;2023-04-24T13:44:03;10.80;99.90
17385;DHT22;8810;48.680;8.894;2023-04-24T13:46:30;10.80;99.90
17385;DHT22;8810;48.680;8.894;2023-04-24T13:48:58;10.90;99.90
17385;DHT22;8810;48.680;8.894;2023-04-24T13:51:26;10.80;99.90
17385;DHT22;8810;48.680;8.894;2023-04-24T13:53:53;10.70;99.90
17385;DHT22;8810;48.680;8.894;2023-04-24T13:56:20;10.70;99.90
17385;DHT22;8810;48.680;8.894;2023-04-24T13:58:48;10.70;99.90
17385;DHT22;8810;48.680;8.894;2023-04-24T14:01:15;10.70;99.90
17385;DHT22;8810;48.680;8.894;2023-04-24T14:03:42;10.70;99.90
17385;DHT22;8810;48.680;8.894;2023-04-24T14:06:37;10.70;99.90
17385;DHT22;8810;48.680;8.894;2023-04-24T14:09:06;10.60;99.90
17385;DHT22;8810;48.680;8.894;2023-04-24T14:11:34;10.60;99.90
17385;DHT22;8810;48.680;8.894;2023-04-24T14:14:02;10.70;99.90
17385;DHT22;8810;48.680;8.894;2023-04-24T14:16:31;10.90;99.90
17385;DHT22;8810;48.680;8.894;2023-04-24T14:18:58;11.10;99.90
17385;DHT22;8810;48.680;8.894;2023-04-24T14:21:57;11.30;99.90
17385;DHT22;8810;48.680;8.894;2023-04-24T14:27:46;11.50;99.90
17385;DHT22;8810;48.680;8.894;2023-04-24T14:30:14;11.60;99.90
17385;DHT22;8810;48.680;8.894;2023-04-24T14:32:41;11.60;99.90
17385;DHT22;8810;48.680;8.894;2023-04-24T14:35:09;11.70;99.90
17385;DHT22;8810;48.680;8.894;2023-04-24T14:37:37;11.70;99.90
17385;DHT22;8810;48.680;8.894;2023-04-24T14:40:07;11.60;99.90
17385;DHT22;8810;48.680;8.894;2023-04-24T14:42:35;11.50;99.90
17385;DHT22;8810;48.680;8.894;2023-04-24T14:45:02;11.40;99.90
17385;DHT22;8810;48.680;8.894;2023-04-24T14:47:29;11.30;99.90
17385;DHT22;8810;48.680;8.894;2023-04-24T14:49:56;11.20;99.90
17385;DHT22;8810;48.680;8.894;2023-04-24T14:52:22;11.10;99.90
17385;DHT22;8810;48.680;8.894;2023-04-24T14:54:51;11.10;99.90
17385;DHT22;8810;48.680;8.894;2023-04-24T14:57:18;11.00;99.90
17385;DHT22;8810;48.680;8.894;2023-04-24T14:59:45;10.80;99.90
17385;DHT22;8810;48.680;8.894;2023-04-24T15:02:12;10.60;99.90
17385;DHT22;8810;48.680;8.894;2023-04-24T15:04:39;10.50;99.90
17385;DHT22;8810;48.680;8.894;2023-04-24T15:07:06;10.50;99.90
17385;DHT22;8810;48.680;8.894;2023-04-24T15:09:33;10.50;99.90
17385;DHT22;8810;48.680;8.894;2023-04-24T15:12:01;10.50;99.90
17385;DHT22;8810;48.680;8.894;2023-04-24T15:14:28;10.50;99.90
17385;DHT22;8810;48.680;8.894;2023-04-24T15:16:55;10.50;99.90
17385;DHT22;8810;48.680;8.894;2023-04-24T15:19:22;10.50;99.90
17385;DHT22;8810;48.680;8.894;2023-04-24T15:21:49;10.60;99.90
17385;DHT22;8810;48.680;8.894;2023-04-24T15:24:16;10.60;99.90
17385;DHT22;8810;48.680;8.894;2023-04-24T15:26:42;10.60;99.90
17385;DHT22;8810;48.680;8.894;2023-04-24T15:29:11;10.60;99.90
17385;DHT22;8810;48.680;8.894;2023-04-24T15:31:38;10.70;99.90
17385;DHT22;8810;48.680;8.894;2023-04-24T15:34:05;10.80;99.90
17385;DHT22;8810;48.680;8.894;2023-04-24T15:36:32;10.90;99.90
17385;DHT22;8810;48.680;8.894;2023-04-24T15:39:00;11.00;99.90
17385;DHT22;8810;48.680;8.894;2023-04-24T15:41:28;11.00;99.90
17385;DHT22;8810;48.680;8.894;2023-04-24T15:43:54;11.10;99.90
17385;DHT22;8810;48.680;8.894;2023-04-24T15:46:23;11.30;99.90
17385;DHT22;8810;48.680;8.894;2023-04-24T15:48:50;11.70;99.90
17385;DHT22;8810;48.680;8.894;2023-04-24T15:51:16;12.20;99.90
17385;DHT22;8810;48.680;8.894;2023-04-24T15:53:43;12.40;99.90
17385;DHT22;8810;48.680;8.894;2023-04-24T15:56:11;12.40;99.90
17385;DHT22;8810;48.680;8.894;2023-04-24T15:58:39;12.40;99.90
17385;DHT22;8810;48.680;8.894;2023-04-24T16:01:06;12.20;99.90
17385;DHT22;8810;48.680;8.894;2023-04-24T16:03:34;12.10;99.90
17385;DHT22;8810;48.680;8.894;2023-04-24T16:06:01;12.00;99.90
17385;DHT22;8810;48.680;8.894;2023-04-24T16:08:28;11.80;99.90
17385;DHT22;8810;48.680;8.894;2023-04-24T16:10:54;11.70;99.90
17385;DHT22;8810;48.680;8.894;2023-04-24T16:13:21;11.60;99.90
17385;DHT22;8810;48.680;8.894;2023-04-24T16:15:49;11.70;99.90
17385;DHT22;8810;48.680;8.894;2023-04-24T16:18:16;11.60;99.90
17385;DHT22;8810;48.680;8.894;2023-04-24T16:20:45;11.60;99.90
17385;DHT22;8810;48.680;8.894;2023-04-24T16:23:11;11.50;99.90
17385;DHT22;8810;48.680;8.894;2023-04-24T16:25:39;11.40;99.90
17385;DHT22;8810;48.680;8.894;2023-04-24T16:28:06;11.30;99.90
17385;DHT22;8810;48.680;8.894;2023-04-24T16:30:33;11.30;99.90
17385;DHT22;8810;48.680;8.894;2023-04-24T16:33:01;11.20;99.90
17385;DHT22;8810;48.680;8.894;2023-04-24T16:35:31;10.90;99.90
17385;DHT22;8810;48.680;8.894;2023-04-24T16:38:00;10.80;99.90
17385;DHT22;8810;48.680;8.894;2023-04-24T16:40:27;10.70;99.90
17385;DHT22;8810;48.680;8.894;2023-04-24T16:42:54;10.90;99.90
17385;DHT22;8810;48.680;8.894;2023-04-24T16:45:21;11.10;99.90
17385;DHT22;8810;48.680;8.894;2023-04-24T16:47:48;11.40;99.90
17385;DHT22;8810;48.680;8.894;2023-04-24T16:50:15;11.60;99.90
17385;DHT22;8810;48.680;8.894;2023-04-24T16:52:42;11.80;99.90
17385;DHT22;8810;48.680;8.894;2023-04-24T16:55:10;12.00;99.90
17385;DHT22;8810;48.680;8.894;2023-04-24T16:57:37;12.00;99.90
17385;DHT22;8810;48.680;8.894;2023-04-24T17:00:05;12.00;99.90
17385;DHT22;8810;48.680;8.894;2023-04-24T17:02:33;11.90;99.90
17385;DHT22;8810;48.680;8.894;2023-04-24T17:05:00;12.00;99.90
17385;DHT22;8810;48.680;8.894;2023-04-24T17:07:27;11.90;99.90
17385;DHT22;8810;48.680;8.894;2023-04-24T17:09:53;11.90;99.90
17385;DHT22;8810;48.680;8.894;2023-04-24T17:12:22;12.00;99.90
17385;DHT22;8810;48.680;8.894;2023-04-24T17:17:17;11.90;99.90
17385;DHT22;8810;48.680;8.894;2023-04-24T17:19:45;11.80;99.90